Time;durP1;ratioP1;P1;durP2;ratioP2;P2;SDS_P1;SDS_P2;PMS_P1;PMS_P2;Temp;Humidity;BMP_temperature;BMP_pressure;BME280_temperature;BME280_humidity;BME280_pressure;Samples;Min_cycle;Max_cycle;Signal;HPM_P1;HPM_P2
2022/10/05 00:02:22;;;;;;;13.13;8.57;;;16.20;83.40;;;;;;5010699;28;20068;-75
2022/10/05 00:04:51;;;;;;;14.18;8.25;;;16.20;83.40;;;;;;5005048;28;20421;-77
2022/10/05 00:07:19;;;;;;;13.73;8.38;;;16.10;83.20;;;;;;5000181;28;20113;-77
2022/10/05 00:09:54;;;;;;;10.65;7.00;;;16.20;82.90;;;;;;5008357;28;20045;-76
2022/10/05 00:12:21;;;;;;;10.57;6.70;;;16.10;82.60;;;;;;5003008;28;20665;-75
2022/10/05 00:14:50;;;;;;;12.35;6.53;;;16.20;82.60;;;;;;5006597;28;20079;-76
2022/10/05 00:17:20;;;;;;;11.88;6.63;;;16.20;82.20;;;;;;5004876;28;20041;-78
2022/10/05 00:19:50;;;;;;;11.10;6.93;;;16.20;82.00;;;;;;5007959;28;20087;-80
2022/10/05 00:22:31;;;;;;;8.43;5.75;;;16.10;81.80;;;;;;5004257;28;20033;-77
2022/10/05 00:24:59;;;;;;;10.05;5.53;;;16.10;81.60;;;;;;5006126;28;20048;-74
2022/10/05 00:27:35;;;;;;;8.50;5.65;;;16.20;81.30;;;;;;5008909;28;20022;-76
2022/10/05 00:30:12;;;;;;;10.90;5.25;;;16.20;80.80;;;;;;5002419;28;20038;-78
2022/10/05 00:32:38;;;;;;;9.00;5.00;;;16.20;80.70;;;;;;4989410;28;20092;-75
2022/10/05 00:35:04;;;;;;;9.50;4.47;;;16.20;80.60;;;;;;5001935;28;20033;-77
2022/10/05 00:37:30;;;;;;;8.93;4.95;;;16.20;80.50;;;;;;5006702;28;20022;-79
2022/10/05 00:39:55;;;;;;;10.25;5.47;;;16.10;80.60;;;;;;5005499;28;20041;-76
2022/10/05 00:42:27;;;;;;;9.73;4.95;;;16.20;80.50;;;;;;5006184;28;20426;-75
2022/10/05 00:45:05;;;;;;;8.13;5.22;;;16.20;80.20;;;;;;5001183;28;20034;-75
2022/10/05 00:47:53;;;;;;;7.90;5.00;;;16.20;80.30;;;;;;4980421;28;20030;-80
2022/10/05 00:50:49;;;;;;;9.10;4.57;;;16.20;80.40;;;;;;5001708;28;20037;-79
2022/10/05 00:53:41;;;;;;;9.27;5.15;;;16.20;80.50;;;;;;5002740;28;20049;-75
2022/10/05 00:56:35;;;;;;;8.48;5.53;;;16.20;80.50;;;;;;4998164;28;20034;-78
2022/10/05 00:59:24;;;;;;;9.18;4.90;;;16.20;80.40;;;;;;5003075;28;20030;-74
2022/10/05 01:02:20;;;;;;;9.05;4.65;;;16.20;80.70;;;;;;5003560;28;20049;-74
2022/10/05 01:05:00;;;;;;;9.13;4.95;;;16.10;80.70;;;;;;4995937;28;20439;-74
2022/10/05 01:07:43;;;;;;;8.82;5.00;;;16.10;80.80;;;;;;5002040;28;20049;-76
2022/10/05 01:10:36;;;;;;;9.45;5.35;;;16.10;81.00;;;;;;5003138;28;20096;-75
2022/10/05 01:13:29;;;;;;;8.20;5.32;;;16.10;81.10;;;;;;5003222;28;20044;-74
2022/10/05 01:16:13;;;;;;;10.35;5.65;;;16.10;81.20;;;;;;4995037;28;20065;-77
2022/10/05 01:18:57;;;;;;;7.77;5.10;;;16.10;81.30;;;;;;4988941;28;20038;-75
2022/10/05 01:21:25;;;;;;;9.45;5.60;;;16.10;81.20;;;;;;5004181;28;20029;-76
2022/10/05 01:24:17;;;;;;;7.57;4.80;;;16.10;81.20;;;;;;5002751;28;20553;-74
2022/10/05 01:27:00;;;;;;;10.25;5.30;;;16.10;81.20;;;;;;5001591;28;20030;-74
2022/10/05 01:29:32;;;;;;;10.70;5.47;;;16.10;81.30;;;;;;4993294;28;20057;-74
2022/10/05 01:32:07;;;;;;;9.98;5.45;;;16.10;81.20;;;;;;5003547;28;20057;-76
2022/10/05 01:34:39;;;;;;;10.70;5.50;;;16.10;81.00;;;;;;5003114;28;20071;-75
2022/10/05 01:37:25;;;;;;;8.57;5.35;;;16.10;80.90;;;;;;5002551;28;20058;-76
2022/10/05 01:39:57;;;;;;;9.68;5.63;;;16.10;81.00;;;;;;5003010;28;20050;-74
2022/10/05 01:42:41;;;;;;;7.93;5.07;;;16.10;81.00;;;;;;5009818;28;20033;-74
2022/10/05 01:45:46;;;;;;;8.60;5.40;;;16.10;81.00;;;;;;5021400;28;20531;-75
2022/10/05 01:48:49;;;;;;;10.57;5.45;;;16.10;80.80;;;;;;5005169;28;20053;-75
2022/10/05 01:51:33;;;;;;;10.95;5.88;;;16.10;80.80;;;;;;4984972;28;20532;-78
2022/10/05 01:54:05;;;;;;;9.13;5.47;;;16.10;80.80;;;;;;4992204;28;20057;-76
2022/10/05 01:57:09;;;;;;;8.63;5.88;;;16.10;81.00;;;;;;5002921;28;20046;-74
2022/10/05 02:00:00;;;;;;;10.30;6.22;;;16.00;81.10;;;;;;4991020;28;20030;-76
2022/10/05 02:02:30;;;;;;;9.80;5.90;;;16.00;81.30;;;;;;5005471;28;20044;-75
2022/10/05 02:05:07;;;;;;;10.27;5.95;;;16.00;81.20;;;;;;5006343;28;20038;-75
2022/10/05 02:07:42;;;;;;;9.55;6.57;;;16.10;81.10;;;;;;5004835;28;20064;-74
2022/10/05 02:10:24;;;;;;;8.27;6.00;;;16.00;81.10;;;;;;5005149;28;20038;-75
2022/10/05 02:12:56;;;;;;;9.95;6.28;;;16.10;81.10;;;;;;5009274;28;20137;-75
2022/10/05 02:15:38;;;;;;;9.40;5.97;;;16.00;80.90;;;;;;5006364;28;20050;-75
2022/10/05 02:18:11;;;;;;;9.73;5.85;;;16.10;80.80;;;;;;5001653;28;20061;-76
2022/10/05 02:20:39;;;;;;;8.77;6.43;;;16.10;80.70;;;;;;5005752;28;20038;-75
2022/10/05 02:23:11;;;;;;;9.18;5.40;;;16.10;80.80;;;;;;5006768;28;20026;-75
2022/10/05 02:25:41;;;;;;;8.23;5.10;;;16.00;80.70;;;;;;5002759;28;20500;-79
2022/10/05 02:28:20;;;;;;;8.77;5.38;;;16.00;80.60;;;;;;5001401;28;20029;-76
2022/10/05 02:31:22;;;;;;;7.18;4.13;;;16.00;80.50;;;;;;5005441;28;20049;-79
2022/10/05 02:33:48;;;;;;;7.82;4.45;;;16.00;79.90;;;;;;5001775;28;20481;-74
2022/10/05 02:36:28;;;;;;;8.18;4.20;;;16.00;79.20;;;;;;5006605;28;20108;-76
2022/10/05 02:38:59;;;;;;;6.30;3.72;;;15.90;79.20;;;;;;5002181;28;20466;-74
2022/10/05 02:41:43;;;;;;;6.70;3.75;;;15.90;79.10;;;;;;5003059;28;20049;-75
2022/10/05 02:44:25;;;;;;;7.72;3.63;;;16.00;78.90;;;;;;5001742;28;20026;-74
2022/10/05 02:47:05;;;;;;;8.85;3.88;;;16.00;78.50;;;;;;5007605;28;20028;-75
2022/10/05 02:49:52;;;;;;;5.65;3.10;;;16.00;78.40;;;;;;5004754;28;20461;-74
2022/10/05 02:52:41;;;;;;;5.28;2.97;;;16.00;78.10;;;;;;5005275;28;20069;-75
2022/10/05 02:55:15;;;;;;;5.40;2.85;;;16.00;77.90;;;;;;5004356;28;20056;-74
2022/10/05 02:57:52;;;;;;;6.57;3.33;;;16.10;77.60;;;;;;5006648;28;20038;-76
2022/10/05 03:00:23;;;;;;;5.50;2.97;;;16.10;77.60;;;;;;5009398;28;20037;-75
2022/10/05 03:03:20;;;;;;;6.82;3.60;;;16.10;77.80;;;;;;5016510;28;20034;-77
2022/10/05 03:05:53;;;;;;;5.32;3.22;;;16.10;77.90;;;;;;5005073;28;20038;-75
2022/10/05 03:09:01;;;;;;;6.22;2.95;;;16.00;77.70;;;;;;5005070;28;20426;-74
2022/10/05 03:11:52;;;;;;;6.60;3.33;;;16.10;77.70;;;;;;5005140;28;20049;-75
2022/10/05 03:14:35;;;;;;;7.97;3.22;;;16.10;78.00;;;;;;5000296;28;20049;-76
2022/10/05 03:17:09;;;;;;;6.50;3.13;;;16.10;78.00;;;;;;5003975;28;20080;-80
2022/10/05 03:20:03;;;;;;;6.45;3.20;;;16.10;78.10;;;;;;5000611;28;20034;-80
2022/10/05 03:23:00;;;;;;;5.00;2.83;;;16.10;78.20;;;;;;4989178;28;20042;-76
2022/10/05 03:26:23;;;;;;;5.78;3.47;;;16.10;78.30;;;;;;5008507;28;20045;-74
2022/10/05 03:29:30;;;;;;;5.97;3.53;;;16.00;78.50;;;;;;4994227;28;20079;-75
2022/10/05 03:32:14;;;;;;;5.57;3.05;;;16.10;78.70;;;;;;4900224;29;20337;-75
2022/10/05 03:34:52;;;;;;;6.38;3.20;;;16.00;78.70;;;;;;4904734;29;20365;-75
2022/10/05 03:37:33;;;;;;;7.63;3.30;;;16.00;78.60;;;;;;4977851;28;20121;-79
2022/10/05 03:40:09;;;;;;;7.75;3.22;;;16.00;78.70;;;;;;5001976;28;20125;-75
2022/10/05 03:42:56;;;;;;;7.03;3.15;;;16.00;78.80;;;;;;4989072;28;20325;-77
2022/10/05 03:45:28;;;;;;;5.35;2.80;;;16.00;78.80;;;;;;5008943;28;20395;-75
2022/10/05 03:48:04;;;;;;;5.93;3.00;;;16.00;78.70;;;;;;5004623;28;20050;-77
2022/10/05 03:51:08;;;;;;;5.90;2.85;;;16.00;78.80;;;;;;5004543;28;20331;-76
2022/10/05 03:53:44;;;;;;;5.53;3.00;;;16.00;78.70;;;;;;4994742;28;20103;-77
2022/10/05 03:56:30;;;;;;;4.82;2.70;;;16.00;78.80;;;;;;5000806;28;20030;-76
2022/10/05 03:59:13;;;;;;;5.40;2.88;;;15.90;78.80;;;;;;5005188;28;20053;-77
2022/10/05 04:01:45;;;;;;;4.43;2.55;;;15.90;78.80;;;;;;4988254;28;20457;-75
2022/10/05 04:04:29;;;;;;;5.18;2.63;;;15.90;78.80;;;;;;5002404;28;20030;-77
2022/10/05 04:06:58;;;;;;;5.65;2.85;;;16.00;78.80;;;;;;5005553;28;20381;-76
2022/10/05 04:09:30;;;;;;;5.80;3.13;;;16.00;78.70;;;;;;5001651;28;20429;-75
2022/10/05 04:12:16;;;;;;;6.05;2.63;;;16.00;78.50;;;;;;5004890;28;20095;-75
2022/10/05 04:14:53;;;;;;;5.53;2.50;;;16.00;78.50;;;;;;4996672;28;20727;-74
2022/10/05 04:17:37;;;;;;;6.68;3.17;;;16.00;78.40;;;;;;5004454;28;20040;-78
2022/10/05 04:20:15;;;;;;;4.15;2.90;;;16.00;78.40;;;;;;5005993;28;20041;-75
2022/10/05 04:23:03;;;;;;;5.25;2.75;;;16.00;78.30;;;;;;5007182;28;20048;-76
2022/10/05 04:25:47;;;;;;;7.70;2.90;;;15.90;78.40;;;;;;4995082;28;20134;-76
2022/10/05 04:28:25;;;;;;;6.07;3.22;;;15.90;78.50;;;;;;5002274;28;20041;-78
2022/10/05 04:30:53;;;;;;;6.13;3.30;;;15.90;78.60;;;;;;5021400;28;20084;-78
2022/10/05 04:33:20;;;;;;;5.53;3.15;;;16.00;78.50;;;;;;5001543;28;20041;-80
2022/10/05 04:35:52;;;;;;;5.45;3.10;;;15.90;78.40;;;;;;5001807;28;20030;-77
2022/10/05 04:38:39;;;;;;;8.75;3.80;;;15.90;78.40;;;;;;5006028;28;20038;-76
2022/10/05 04:41:36;;;;;;;5.43;3.30;;;16.00;78.20;;;;;;4991814;28;20034;-76
2022/10/05 04:44:26;;;;;;;7.40;2.95;;;16.00;78.30;;;;;;5003681;28;20118;-75
2022/10/05 04:47:10;;;;;;;8.90;2.97;;;16.00;78.40;;;;;;4999837;28;20053;-77
2022/10/05 04:49:48;;;;;;;6.78;3.47;;;16.00;78.50;;;;;;4994686;28;20441;-76
2022/10/05 04:52:22;;;;;;;6.65;3.50;;;16.00;78.40;;;;;;5015821;28;20283;-74
2022/10/05 04:55:24;;;;;;;9.23;3.92;;;16.00;78.50;;;;;;5001957;28;20041;-75
2022/10/05 04:58:17;;;;;;;7.03;3.28;;;16.00;78.60;;;;;;5003380;28;20038;-75
2022/10/05 05:01:06;;;;;;;7.50;3.70;;;16.00;78.30;;;;;;4995833;28;20038;-77
2022/10/05 05:03:41;;;;;;;8.48;3.58;;;16.00;78.30;;;;;;4985809;28;20046;-77
2022/10/05 05:06:06;;;;;;;6.80;3.72;;;16.00;78.20;;;;;;5003362;28;20119;-77
2022/10/05 05:08:55;;;;;;;6.80;3.05;;;16.00;78.30;;;;;;5000285;28;20381;-76
2022/10/05 05:11:25;;;;;;;6.40;3.28;;;15.90;78.30;;;;;;5000223;28;20057;-76
2022/10/05 05:14:06;;;;;;;7.53;4.10;;;15.90;78.50;;;;;;5010705;28;20053;-77
2022/10/05 05:16:39;;;;;;;6.35;3.95;;;15.90;78.60;;;;;;5002850;28;20038;-79
2022/10/05 05:19:13;;;;;;;6.72;3.88;;;15.90;78.90;;;;;;5011083;28;20026;-80
2022/10/05 05:21:44;;;;;;;6.13;3.50;;;15.90;79.00;;;;;;5005530;28;20692;-81
2022/10/05 05:24:47;;;;;;;6.55;3.30;;;15.90;79.00;;;;;;5008947;28;20060;-75
2022/10/05 05:27:43;;;;;;;7.43;3.90;;;15.80;78.90;;;;;;5008559;28;20041;-75
2022/10/05 05:30:22;;;;;;;10.82;4.30;;;15.80;78.90;;;;;;5005010;28;20041;-76
2022/10/05 05:33:11;;;;;;;7.88;3.70;;;15.80;78.80;;;;;;5003076;28;20125;-76
2022/10/05 05:35:59;;;;;;;9.98;4.00;;;15.90;78.70;;;;;;5002666;28;20265;-75
2022/10/05 05:38:27;;;;;;;10.15;4.32;;;15.90;78.80;;;;;;5007585;28;20036;-76
2022/10/05 05:41:04;;;;;;;7.10;3.72;;;15.80;78.90;;;;;;5010958;28;20117;-76
2022/10/05 05:43:49;;;;;;;6.15;3.30;;;15.80;78.70;;;;;;4998421;28;20105;-77
2022/10/05 05:46:27;;;;;;;7.25;3.50;;;15.90;78.50;;;;;;5011834;28;20029;-76
2022/10/05 05:48:56;;;;;;;10.07;3.53;;;15.90;78.30;;;;;;5005154;28;20029;-77
2022/10/05 05:51:27;;;;;;;9.73;3.38;;;16.00;78.30;;;;;;5007130;28;20053;-75
2022/10/05 05:54:10;;;;;;;5.97;3.17;;;15.90;78.00;;;;;;5009379;28;20043;-75
2022/10/05 05:56:44;;;;;;;6.05;3.28;;;16.00;77.40;;;;;;5004886;28;20125;-76
2022/10/05 05:59:31;;;;;;;6.35;3.15;;;16.00;77.00;;;;;;5013081;28;20033;-78
2022/10/05 06:02:09;;;;;;;6.35;3.08;;;16.10;76.50;;;;;;5009106;28;20045;-78
2022/10/05 06:04:40;;;;;;;10.27;3.33;;;16.10;76.50;;;;;;5005282;28;20084;-73
2022/10/05 06:07:13;;;;;;;5.50;2.75;;;16.10;76.30;;;;;;5008432;28;20098;-75
2022/10/05 06:09:45;;;;;;;9.18;3.45;;;16.10;76.40;;;;;;5006750;28;20042;-73
2022/10/05 06:12:37;;;;;;;10.05;3.40;;;16.10;76.50;;;;;;5008363;28;20085;-75
2022/10/05 06:15:30;;;;;;;5.32;2.88;;;16.10;76.40;;;;;;5005394;28;20033;-76
2022/10/05 06:18:00;;;;;;;6.78;2.78;;;16.10;76.40;;;;;;5005658;28;20177;-74
2022/10/05 06:20:49;;;;;;;5.32;2.65;;;16.20;76.60;;;;;;5006050;28;20113;-75
2022/10/05 06:23:25;;;;;;;6.85;2.90;;;16.10;76.80;;;;;;5015514;28;20326;-74
2022/10/05 06:26:20;;;;;;;10.93;3.33;;;16.10;77.00;;;;;;5001883;28;20034;-74
2022/10/05 06:28:56;;;;;;;9.13;3.25;;;16.20;77.00;;;;;;5022923;28;20037;-74
2022/10/05 06:31:40;;;;;;;10.63;3.25;;;16.20;77.20;;;;;;5003443;28;20128;-75
2022/10/05 06:34:35;;;;;;;8.00;3.35;;;16.10;77.20;;;;;;5001191;28;20550;-75
2022/10/05 06:37:09;;;;;;;6.60;3.63;;;16.20;77.30;;;;;;4995225;28;20045;-76
2022/10/05 06:39:54;;;;;;;7.80;3.17;;;16.20;77.50;;;;;;5010441;28;20025;-74
2022/10/05 06:42:41;;;;;;;8.95;3.50;;;16.20;77.70;;;;;;5005018;28;20050;-80
2022/10/05 06:45:52;;;;;;;7.25;3.35;;;16.30;77.90;;;;;;5003126;28;20042;-76
2022/10/05 06:48:38;;;;;;;7.68;3.58;;;16.20;78.10;;;;;;4994892;28;20091;-74
2022/10/05 06:51:17;;;;;;;7.80;4.07;;;16.20;78.40;;;;;;5009021;28;20084;-76
2022/10/05 06:53:51;;;;;;;6.75;3.38;;;16.20;78.70;;;;;;5021563;28;20502;-76
2022/10/05 06:56:29;;;;;;;7.88;3.65;;;16.20;79.10;;;;;;5007349;28;20046;-78
2022/10/05 06:59:18;;;;;;;7.50;4.05;;;16.20;79.20;;;;;;5002293;28;20421;-73
2022/10/05 07:01:57;;;;;;;7.25;4.45;;;16.10;79.50;;;;;;5009696;28;20545;-76
2022/10/05 07:04:39;;;;;;;7.55;4.35;;;16.10;79.60;;;;;;5003858;28;20026;-75
2022/10/05 07:07:20;;;;;;;7.88;4.78;;;16.10;79.70;;;;;;5008073;28;20034;-74
2022/10/05 07:10:04;;;;;;;9.23;5.20;;;16.10;79.90;;;;;;5005477;28;20049;-74
2022/10/05 07:13:08;;;;;;;8.20;4.90;;;16.10;80.10;;;;;;5016636;28;20041;-74
2022/10/05 07:15:58;;;;;;;7.53;4.55;;;16.10;80.10;;;;;;5005201;28;20042;-76
2022/10/05 07:18:47;;;;;;;9.98;5.07;;;16.10;80.30;;;;;;5013090;28;20038;-75
2022/10/05 07:21:22;;;;;;;9.85;5.18;;;16.10;80.50;;;;;;5011455;28;20120;-79
2022/10/05 07:24:26;;;;;;;7.55;5.28;;;16.10;80.50;;;;;;5011089;28;20040;-79
2022/10/05 07:27:03;;;;;;;9.98;5.07;;;16.10;80.30;;;;;;5004709;28;20033;-75
2022/10/05 07:30:03;;;;;;;8.93;5.40;;;16.20;80.30;;;;;;5009507;28;20500;-79
2022/10/05 07:32:38;;;;;;;8.48;5.25;;;16.10;80.50;;;;;;5005288;28;20429;-75
2022/10/05 07:37:52;;;;;;;9.43;5.63;;;16.10;80.40;;;;;;5002052;28;20034;-74
2022/10/05 07:37:58;;;;;;;9.93;5.28;;;16.20;80.30;;;;;;5000232;28;20046;-73
2022/10/05 07:40:36;;;;;;;9.00;5.32;;;16.30;80.20;;;;;;5001914;28;20025;-75
2022/10/05 07:43:18;;;;;;;9.68;5.70;;;16.30;80.10;;;;;;5004318;28;20040;-74
2022/10/05 07:45:45;;;;;;;10.45;5.38;;;16.40;80.20;;;;;;5004620;28;20125;-75
2022/10/05 07:48:20;;;;;;;8.80;5.25;;;16.40;80.10;;;;;;5001556;28;20370;-77
2022/10/05 07:51:01;;;;;;;10.50;5.72;;;16.40;79.90;;;;;;4999653;28;20089;-77
2022/10/05 07:53:59;;;;;;;9.85;5.72;;;16.40;80.00;;;;;;4999026;28;20041;-73
2022/10/05 07:56:30;;;;;;;11.80;5.85;;;16.40;80.10;;;;;;4998586;28;20034;-76
2022/10/05 07:59:06;;;;;;;8.93;5.78;;;16.40;80.10;;;;;;4997355;28;20526;-76
2022/10/05 08:01:39;;;;;;;9.55;6.53;;;16.50;80.20;;;;;;5002976;28;20049;-77
2022/10/05 08:04:23;;;;;;;10.00;5.53;;;16.50;80.00;;;;;;5003933;28;20045;-74
2022/10/05 08:06:56;;;;;;;9.27;6.22;;;16.60;80.00;;;;;;5004704;28;20087;-78
2022/10/05 08:09:44;;;;;;;10.05;6.63;;;16.50;79.80;;;;;;5001885;28;20030;-78
2022/10/05 08:12:43;;;;;;;12.43;6.45;;;16.60;79.80;;;;;;5000557;28;20156;-77
2022/10/05 08:15:20;;;;;;;11.32;7.10;;;16.60;80.00;;;;;;5018362;28;20077;-75
2022/10/05 08:17:56;;;;;;;10.13;7.28;;;16.60;79.70;;;;;;5007154;28;20145;-77
2022/10/05 08:20:48;;;;;;;13.23;7.75;;;16.60;80.10;;;;;;5006015;28;20040;-77
2022/10/05 08:23:32;;;;;;;11.18;7.80;;;16.60;80.10;;;;;;5003071;28;20120;-77
2022/10/05 08:26:21;;;;;;;12.98;8.13;;;16.60;80.10;;;;;;5006238;28;20572;-82
2022/10/05 08:29:12;;;;;;;11.00;8.25;;;16.50;80.30;;;;;;4993173;28;20034;-74
2022/10/05 08:31:40;;;;;;;12.55;9.50;;;16.60;80.10;;;;;;5008015;28;20045;-75
2022/10/05 08:34:21;;;;;;;13.30;9.85;;;16.60;80.10;;;;;;5002816;28;20117;-78
2022/10/05 08:37:11;;;;;;;16.05;10.02;;;16.60;80.10;;;;;;5004430;28;20034;-75
2022/10/05 08:39:50;;;;;;;13.63;9.60;;;16.60;80.20;;;;;;5010145;28;20042;-76
2022/10/05 08:42:35;;;;;;;15.30;10.73;;;16.70;80.20;;;;;;5012423;28;20671;-77
2022/10/05 08:45:07;;;;;;;14.20;9.85;;;16.70;79.90;;;;;;5004843;28;20602;-78
2022/10/05 08:47:51;;;;;;;15.52;9.75;;;16.70;79.80;;;;;;5027082;28;20033;-79
2022/10/05 08:50:54;;;;;;;14.10;9.30;;;16.80;79.70;;;;;;5007256;28;20034;-76
2022/10/05 08:53:55;;;;;;;15.07;8.70;;;16.80;79.80;;;;;;5010468;28;20044;-74
2022/10/05 08:56:55;;;;;;;13.80;8.30;;;16.90;79.60;;;;;;4992737;28;20041;-79
2022/10/05 08:59:40;;;;;;;13.70;7.13;;;17.00;79.60;;;;;;5010774;28;20094;-77
2022/10/05 09:02:37;;;;;;;14.10;8.35;;;17.00;79.50;;;;;;5008562;28;20042;-78
2022/10/05 09:05:30;;;;;;;11.50;7.30;;;17.10;79.30;;;;;;5006341;28;20532;-76
2022/10/05 09:08:16;;;;;;;11.07;7.63;;;17.10;78.70;;;;;;5008611;28;20061;-75
2022/10/05 09:10:57;;;;;;;12.95;7.68;;;17.10;79.00;;;;;;5009172;28;20389;-76
2022/10/05 09:14:07;;;;;;;9.05;6.65;;;17.10;78.80;;;;;;5009857;28;20042;-76
2022/10/05 09:16:33;;;;;;;9.75;6.78;;;17.10;78.50;;;;;;4994635;28;20485;-75
2022/10/05 09:19:17;;;;;;;10.98;6.75;;;17.20;78.70;;;;;;5007693;28;20026;-76
2022/10/05 09:22:14;;;;;;;13.20;6.70;;;17.40;78.60;;;;;;5007590;28;20034;-74
2022/10/05 09:25:18;;;;;;;10.68;6.25;;;17.40;78.30;;;;;;5003815;28;20041;-79
2022/10/05 09:28:19;;;;;;;12.57;6.10;;;17.50;78.10;;;;;;4984552;28;20038;-75
2022/10/05 09:30:55;;;;;;;9.23;5.70;;;17.60;77.80;;;;;;4961763;28;20274;-79
2022/10/05 09:33:50;;;;;;;13.48;6.13;;;17.60;77.50;;;;;;4997927;28;20029;-78
2022/10/05 09:36:46;;;;;;;10.82;5.47;;;17.60;77.50;;;;;;5000628;28;20037;-84
2022/10/05 09:39:30;;;;;;;11.73;5.93;;;17.70;77.50;;;;;;5014246;28;20465;-76
2022/10/05 09:42:04;;;;;;;9.18;5.32;;;17.70;76.90;;;;;;5020927;28;20125;-79
2022/10/05 09:44:45;;;;;;;;;;;17.70;76.70;;;;;;4997941;28;20050;-78
2022/10/05 09:47:32;;;;;;;9.18;4.97;;;17.70;76.70;;;;;;5001270;28;19928;-78
2022/10/05 09:50:22;;;;;;;8.18;4.72;;;17.70;76.50;;;;;;5000159;28;20132;-75
2022/10/05 09:53:09;;;;;;;9.02;4.57;;;17.80;76.30;;;;;;4997809;28;20605;-78
2022/10/05 09:55:52;;;;;;;8.90;4.43;;;17.90;76.30;;;;;;4998309;28;20041;-80
2022/10/05 09:58:48;;;;;;;8.05;4.25;;;17.90;75.50;;;;;;5014750;28;20042;-80
2022/10/05 10:01:33;;;;;;;7.72;4.10;;;17.90;75.20;;;;;;4997881;28;20054;-74
2022/10/05 10:04:08;;;;;;;8.70;4.50;;;17.90;75.40;;;;;;4997797;28;20634;-76
2022/10/05 10:06:52;;;;;;;9.10;4.22;;;18.10;75.00;;;;;;4997258;28;20165;-76
2022/10/05 10:09:59;;;;;;;9.05;3.72;;;18.10;74.60;;;;;;4991770;28;20500;-82
2022/10/05 10:12:34;;;;;;;8.65;4.50;;;18.20;74.50;;;;;;4998324;28;20482;-81
2022/10/05 10:15:22;;;;;;;9.25;3.97;;;18.20;73.80;;;;;;4994439;28;20037;-78
2022/10/05 10:18:03;;;;;;;8.35;3.70;;;18.30;73.60;;;;;;5001748;28;20041;-79
2022/10/05 10:21:06;;;;;;;7.82;4.10;;;18.40;73.10;;;;;;4993310;28;20470;-75
2022/10/05 10:23:57;;;;;;;8.32;4.22;;;18.50;72.50;;;;;;5001123;28;20038;-75
2022/10/05 10:26:41;;;;;;;9.95;4.90;;;18.60;72.00;;;;;;5011913;28;20495;-80
2022/10/05 10:29:18;;;;;;;7.78;3.50;;;18.60;71.60;;;;;;5010996;28;20083;-77
2022/10/05 10:32:09;;;;;;;18.67;13.55;;;18.80;71.20;;;;;;5011689;28;20433;-74
2022/10/05 10:35:10;;;;;;;8.75;4.00;;;18.90;70.90;;;;;;4995160;28;20045;-76
2022/10/05 10:38:08;;;;;;;8.05;5.65;;;18.80;70.50;;;;;;4997257;28;20026;-77
2022/10/05 10:40:55;;;;;;;57.33;38.85;;;18.80;70.20;;;;;;5012349;28;20325;-77
2022/10/05 10:43:53;;;;;;;10.23;3.92;;;18.80;70.80;;;;;;4995278;28;20299;-77
2022/10/05 10:47:12;;;;;;;8.07;3.25;;;18.70;71.00;;;;;;4996124;28;20391;-78
2022/10/05 10:50:14;;;;;;;8.80;3.72;;;18.80;71.40;;;;;;5012837;28;20034;-73
2022/10/05 10:52:52;;;;;;;6.53;3.63;;;18.90;71.00;;;;;;4996738;28;20068;-80
2022/10/05 10:55:18;;;;;;;6.00;3.30;;;18.80;70.30;;;;;;5010719;28;20033;-84
2022/10/05 10:58:18;;;;;;;6.85;3.83;;;18.80;70.90;;;;;;4998866;28;20337;-74
2022/10/05 11:01:27;;;;;;;7.15;3.58;;;18.70;70.40;;;;;;4999485;28;20037;-76
2022/10/05 11:04:03;;;;;;;8.27;3.10;;;18.70;70.80;;;;;;4998304;28;20093;-76
2022/10/05 11:06:29;;;;;;;6.25;3.40;;;18.60;70.70;;;;;;4995480;28;20052;-80
2022/10/05 11:09:08;;;;;;;7.70;3.60;;;18.70;70.90;;;;;;4994267;28;20449;-80
2022/10/05 11:11:49;;;;;;;6.53;3.20;;;18.60;70.50;;;;;;4993012;28;20026;-78
2022/10/05 11:14:51;;;;;;;9.38;3.45;;;18.60;70.80;;;;;;5000024;28;20426;-79
2022/10/05 11:17:24;;;;;;;7.80;3.42;;;18.70;70.40;;;;;;4998338;28;20047;-79
2022/10/05 11:20:23;;;;;;;8.45;4.22;;;18.80;70.50;;;;;;4997651;28;20038;-78
2022/10/05 11:22:56;;;;;;;7.05;3.50;;;18.70;70.00;;;;;;5000478;28;20049;-80
2022/10/05 11:25:28;;;;;;;7.28;3.28;;;18.70;70.50;;;;;;4993181;28;20042;-77
2022/10/05 11:28:18;;;;;;;7.05;3.35;;;18.70;70.70;;;;;;5001552;28;20610;-78
2022/10/05 11:30:58;;;;;;;8.07;3.13;;;18.70;70.60;;;;;;4998681;28;20060;-79
2022/10/05 11:33:48;;;;;;;7.30;3.45;;;18.70;70.10;;;;;;4999875;28;20041;-78
2022/10/05 11:36:31;;;;;;;7.32;3.35;;;18.70;70.10;;;;;;5011224;28;20038;-79
2022/10/05 11:39:21;;;;;;;7.95;3.60;;;18.80;69.90;;;;;;5018767;28;20125;-79
2022/10/05 11:42:24;;;;;;;5.93;3.05;;;18.90;69.80;;;;;;5019617;28;20030;-81
2022/10/05 11:45:10;;;;;;;8.63;4.03;;;18.90;70.20;;;;;;5006327;28;20041;-76
2022/10/05 11:47:36;;;;;;;9.32;3.67;;;19.00;69.60;;;;;;5003368;28;20381;-84
2022/10/05 11:50:19;;;;;;;8.32;3.47;;;19.00;69.90;;;;;;5005324;28;20517;-78
2022/10/05 11:52:57;;;;;;;7.90;4.18;;;19.00;69.40;;;;;;5000907;28;20053;-80
2022/10/05 11:55:26;;;;;;;7.70;3.40;;;18.90;69.70;;;;;;5005805;28;20057;-80
2022/10/05 11:58:06;;;;;;;7.40;3.42;;;19.00;69.50;;;;;;5010508;28;20045;-75
2022/10/05 12:00:57;;;;;;;6.45;3.65;;;19.10;69.50;;;;;;5002053;28;20088;-77
2022/10/05 12:03:54;;;;;;;5.55;3.20;;;19.10;68.70;;;;;;5004974;28;20072;-79
2022/10/05 12:06:39;;;;;;;7.32;3.40;;;19.10;68.40;;;;;;4991052;28;20378;-73
2022/10/05 12:09:23;;;;;;;8.70;3.42;;;19.20;68.40;;;;;;5003138;28;20061;-76
2022/10/05 12:12:06;;;;;;;6.82;3.60;;;19.20;68.50;;;;;;5002699;28;20080;-76
2022/10/05 12:15:10;;;;;;;8.60;2.88;;;19.20;68.40;;;;;;4997997;28;20042;-75
2022/10/05 12:17:54;;;;;;;9.13;3.22;;;19.30;67.90;;;;;;4981301;28;20041;-77
2022/10/05 12:20:53;;;;;;;9.32;3.13;;;19.20;67.90;;;;;;5004278;28;20034;-76
2022/10/05 12:23:38;;;;;;;8.82;3.40;;;19.30;67.20;;;;;;5004949;28;20052;-77
2022/10/05 12:26:10;;;;;;;10.00;3.90;;;19.10;67.60;;;;;;5002045;28;20432;-77
2022/10/05 12:28:48;;;;;;;8.13;2.95;;;19.00;67.80;;;;;;5000421;28;20025;-77
2022/10/05 12:31:38;;;;;;;8.07;3.38;;;18.90;67.70;;;;;;5011766;28;20390;-78
2022/10/05 12:34:44;;;;;;;8.20;3.38;;;19.00;67.60;;;;;;5001835;28;20045;-79
2022/10/05 12:37:35;;;;;;;8.03;3.27;;;18.90;67.80;;;;;;5005089;28;20049;-77
2022/10/05 12:40:20;;;;;;;6.22;2.53;;;18.90;68.00;;;;;;5004308;28;20281;-76
2022/10/05 12:42:58;;;;;;;7.38;3.00;;;18.60;68.50;;;;;;5006405;28;20045;-76
2022/10/05 12:45:45;;;;;;;6.75;2.97;;;18.60;68.00;;;;;;5002753;28;20050;-76
2022/10/05 12:48:22;;;;;;;6.55;2.92;;;18.70;68.10;;;;;;5008898;28;20117;-78
2022/10/05 12:50:50;;;;;;;6.35;2.70;;;18.60;67.80;;;;;;5008259;28;20057;-76
2022/10/05 12:53:34;;;;;;;8.02;2.70;;;18.70;67.90;;;;;;5017210;28;20048;-78
2022/10/05 12:56:07;;;;;;;6.40;3.10;;;18.80;67.80;;;;;;5004202;28;20118;-78
2022/10/05 12:59:13;;;;;;;7.22;2.95;;;18.80;67.70;;;;;;5001990;28;20038;-77
2022/10/05 13:02:07;;;;;;;7.22;2.67;;;18.90;67.30;;;;;;5002964;28;20045;-75
2022/10/05 13:04:40;;;;;;;6.97;2.67;;;18.90;67.70;;;;;;4997185;28;20350;-78
2022/10/05 13:07:34;;;;;;;8.18;2.72;;;19.00;67.40;;;;;;5003331;28;20091;-77
2022/10/05 13:10:23;;;;;;;6.40;2.72;;;19.10;67.10;;;;;;4998857;28;20034;-80
2022/10/05 13:13:12;;;;;;;6.43;2.80;;;19.10;66.80;;;;;;4982762;28;20052;-79
2022/10/05 13:15:52;;;;;;;7.25;2.20;;;19.10;66.60;;;;;;4996009;28;20448;-80
2022/10/05 13:18:33;;;;;;;7.45;2.33;;;19.20;66.90;;;;;;5001606;28;20513;-79
2022/10/05 13:21:05;;;;;;;5.75;2.58;;;19.30;66.60;;;;;;5000623;28;20452;-76
2022/10/05 13:23:52;;;;;;;8.48;3.20;;;19.30;65.80;;;;;;5000171;28;20030;-79
2022/10/05 13:26:24;;;;;;;7.45;2.80;;;19.30;66.30;;;;;;5000179;28;20044;-78
2022/10/05 13:28:56;;;;;;;8.63;2.45;;;19.40;65.70;;;;;;5000031;28;20110;-74
2022/10/05 13:31:36;;;;;;;6.13;2.40;;;19.30;65.90;;;;;;5002658;28;20136;-74
2022/10/05 13:34:07;;;;;;;5.95;2.55;;;19.30;65.60;;;;;;5004272;28;20071;-79
2022/10/05 13:36:44;;;;;;;8.80;2.75;;;19.30;65.90;;;;;;5023799;28;20165;-79
2022/10/05 13:39:32;;;;;;;7.88;2.90;;;19.30;66.40;;;;;;5006304;28;20084;-75
2022/10/05 13:42:01;;;;;;;6.57;2.80;;;19.40;66.10;;;;;;5005855;28;20503;-77
2022/10/05 13:44:34;;;;;;;5.20;2.45;;;19.30;66.70;;;;;;5004489;28;20038;-77
2022/10/05 13:47:06;;;;;;;8.82;2.85;;;19.50;66.00;;;;;;5019078;28;20037;-79
2022/10/05 13:49:35;;;;;;;7.75;2.72;;;19.60;66.20;;;;;;5006417;28;20101;-78
2022/10/05 13:52:31;;;;;;;7.35;2.80;;;19.50;66.60;;;;;;5002220;28;20046;-77
2022/10/05 13:54:59;;;;;;;10.20;2.88;;;19.60;66.50;;;;;;5009152;28;20436;-79
2022/10/05 13:57:48;;;;;;;6.43;2.60;;;19.70;66.00;;;;;;5004762;28;20034;-77
2022/10/05 14:00:23;;;;;;;6.47;2.58;;;19.70;66.40;;;;;;5010482;28;20048;-75
2022/10/05 14:02:51;;;;;;;8.65;2.63;;;19.70;66.90;;;;;;5006213;28;20343;-78
2022/10/05 14:05:27;;;;;;;10.90;2.92;;;19.60;66.50;;;;;;5007227;28;20117;-78
2022/10/05 14:08:01;;;;;;;14.27;3.35;;;19.60;67.00;;;;;;5008260;28;20128;-77